createdAt,value
2023-03-11T00:00:46.727Z,1.70
2023-03-11T00:03:21.771Z,1.50
2023-03-11T00:05:52.986Z,1.90
2023-03-11T00:08:25.256Z,1.70
2023-03-11T00:10:55.692Z,1.80
2023-03-11T00:13:23.337Z,1.30
2023-03-11T00:15:56.108Z,1.33
2023-03-11T00:18:27.205Z,1.50
2023-03-11T00:20:55.765Z,1.13
2023-03-11T00:23:24.275Z,1.40
2023-03-11T00:25:52.177Z,1.40
2023-03-11T00:28:19.367Z,1.40
2023-03-11T00:30:47.231Z,1.50
2023-03-11T00:33:16.792Z,1.43
2023-03-11T00:35:44.721Z,1.63
2023-03-11T00:38:18.858Z,1.47
2023-03-11T00:40:47.550Z,1.33
2023-03-11T00:43:16.180Z,1.27
2023-03-11T00:45:43.305Z,1.27
2023-03-11T00:48:12.578Z,1.60
2023-03-11T00:50:40.683Z,1.50
2023-03-11T00:53:08.063Z,1.43
2023-03-11T00:55:36.587Z,0.90
2023-03-11T00:58:07.071Z,1.00
2023-03-11T01:00:35.037Z,1.00
2023-03-11T01:03:02.913Z,1.13
2023-03-11T01:05:32.690Z,1.33
2023-03-11T01:08:00.774Z,0.97
2023-03-11T01:10:29.881Z,1.10
2023-03-11T01:12:57.586Z,1.33
2023-03-11T01:15:29.131Z,1.40
2023-03-11T01:17:56.685Z,1.33
2023-03-11T01:20:24.565Z,1.20
2023-03-11T01:22:51.844Z,1.30
2023-03-11T01:25:22.738Z,1.20
2023-03-11T01:27:50.121Z,1.37
2023-03-11T01:30:21.176Z,1.40
2023-03-11T01:32:49.118Z,1.50
2023-03-11T01:35:18.015Z,1.53
2023-03-11T01:37:45.314Z,1.60
2023-03-11T01:40:24.939Z,1.13
2023-03-11T01:42:52.177Z,1.73
2023-03-11T01:45:49.568Z,1.10
2023-03-11T01:48:16.699Z,1.63
2023-03-11T01:50:48.714Z,1.20
2023-03-11T01:53:17.600Z,1.57
2023-03-11T01:55:46.052Z,1.27
2023-03-11T01:58:24.041Z,1.67
2023-03-11T02:00:51.274Z,1.20
2023-03-11T02:03:26.139Z,1.10
2023-03-11T02:05:55.850Z,1.17
2023-03-11T02:08:23.514Z,1.20
2023-03-11T02:10:53.276Z,1.20
2023-03-11T02:13:21.120Z,1.03
2023-03-11T02:15:48.662Z,0.90
2023-03-11T02:18:20.423Z,1.33
2023-03-11T02:21:06.414Z,1.00
2023-03-11T02:23:54.123Z,0.90
2023-03-11T02:26:48.615Z,1.20
2023-03-11T02:29:16.499Z,1.20
2023-03-11T02:31:44.411Z,1.20
2023-03-11T02:34:21.736Z,1.20
2023-03-11T02:36:49.355Z,0.90
2023-03-11T02:39:16.874Z,1.40
2023-03-11T02:41:47.156Z,0.90
2023-03-11T02:44:16.817Z,1.00
2023-03-11T02:46:44.470Z,1.10
2023-03-11T02:49:12.752Z,0.73
2023-03-11T02:51:40.117Z,1.00
2023-03-11T02:54:07.645Z,0.90
2023-03-11T02:56:35.126Z,0.70
2023-03-11T02:59:02.398Z,0.93
2023-03-11T03:01:29.787Z,0.90
2023-03-11T03:03:56.963Z,0.90
2023-03-11T03:06:25.370Z,1.03
2023-03-11T03:08:52.567Z,0.80
2023-03-11T03:11:20.068Z,0.97
2023-03-11T03:13:48.541Z,1.00
2023-03-11T03:16:16.034Z,1.00
2023-03-11T03:18:43.520Z,0.83
2023-03-11T03:21:10.687Z,1.00
2023-03-11T03:23:37.973Z,1.33
2023-03-11T03:26:06.246Z,0.73
2023-03-11T03:28:33.538Z,1.03
2023-03-11T03:31:07.743Z,1.00
2023-03-11T03:33:35.495Z,0.80
2023-03-11T03:36:10.500Z,1.20
2023-03-11T03:38:38.195Z,1.00
2023-03-11T03:41:06.161Z,1.47
2023-03-11T03:43:33.817Z,0.90
2023-03-11T03:46:04.879Z,1.00
2023-03-11T03:48:32.891Z,0.80
2023-03-11T03:51:05.498Z,1.10
2023-03-11T03:53:35.034Z,1.33
2023-03-11T03:56:07.108Z,1.00
2023-03-11T03:58:34.406Z,1.00
2023-03-11T04:01:02.083Z,1.20
2023-03-11T04:03:29.558Z,1.17
2023-03-11T04:06:11.372Z,0.97
2023-03-11T04:08:40.145Z,1.03
2023-03-11T04:11:07.644Z,1.10
2023-03-11T04:13:35.108Z,1.13
2023-03-11T04:16:07.288Z,1.00
2023-03-11T04:18:34.882Z,1.67
2023-03-11T04:21:06.139Z,0.90
2023-03-11T04:23:34.689Z,0.90
2023-03-11T04:26:02.113Z,0.80
2023-03-11T04:28:29.200Z,1.00
2023-03-11T04:30:56.848Z,1.10
2023-03-11T04:33:24.225Z,1.10
2023-03-11T04:35:51.400Z,1.17
2023-03-11T04:38:18.661Z,1.13
2023-03-11T04:40:46.010Z,1.70
2023-03-11T04:43:13.754Z,0.93
2023-03-11T04:45:42.649Z,1.30
2023-03-11T04:48:10.064Z,1.30
2023-03-11T04:50:37.488Z,1.20
2023-03-11T04:53:04.909Z,1.00
2023-03-11T04:55:33.513Z,1.30
2023-03-11T04:58:00.974Z,0.97
2023-03-11T05:00:28.661Z,0.90
2023-03-11T05:02:56.282Z,1.00
2023-03-11T05:05:24.021Z,1.37
2023-03-11T05:07:51.169Z,1.10
2023-03-11T05:10:22.825Z,1.37
2023-03-11T05:12:50.837Z,1.33
2023-03-11T05:15:18.993Z,1.17
2023-03-11T05:17:46.156Z,0.90
2023-03-11T05:20:15.751Z,1.00
2023-03-11T05:22:43.174Z,1.10
2023-03-11T05:25:10.748Z,1.00
2023-03-11T05:27:38.193Z,2.23
2023-03-11T05:30:06.447Z,1.23
2023-03-11T05:32:33.972Z,1.13
2023-03-11T05:35:01.383Z,0.90
2023-03-11T05:37:30.985Z,0.80
2023-03-11T05:39:58.430Z,1.00
2023-03-11T05:42:25.861Z,0.90
2023-03-11T05:44:53.336Z,1.30
2023-03-11T05:47:20.544Z,1.10
2023-03-11T05:49:49.220Z,1.07
2023-03-11T05:52:17.457Z,1.50
2023-03-11T05:54:44.768Z,1.20
2023-03-11T05:57:12.225Z,1.00
2023-03-11T05:59:39.639Z,1.37
2023-03-11T06:02:06.811Z,1.20
2023-03-11T06:04:34.372Z,1.07
2023-03-11T06:07:01.868Z,1.07
2023-03-11T06:09:29.043Z,0.90
2023-03-11T06:11:56.174Z,1.50
2023-03-11T06:14:23.767Z,1.03
2023-03-11T06:16:50.865Z,1.23
2023-03-11T06:19:18.363Z,0.80
2023-03-11T06:21:45.496Z,0.90
2023-03-11T06:24:12.585Z,1.20
2023-03-11T06:26:39.725Z,1.30
2023-03-11T06:29:13.168Z,1.03
2023-03-11T06:31:41.672Z,1.40
2023-03-11T06:34:11.222Z,1.03
2023-03-11T06:36:38.742Z,1.00
2023-03-11T06:39:06.291Z,1.60
2023-03-11T06:41:35.056Z,1.10
2023-03-11T06:44:03.045Z,0.97
2023-03-11T06:46:30.772Z,1.00
2023-03-11T06:48:58.519Z,0.90
2023-03-11T06:51:25.779Z,1.00
2023-03-11T06:53:54.016Z,1.10
2023-03-11T06:56:22.853Z,0.97
2023-03-11T06:58:50.236Z,1.17
2023-03-11T07:01:20.299Z,0.93
2023-03-11T07:03:48.695Z,0.80
2023-03-11T07:06:24.925Z,1.00
2023-03-11T07:08:53.428Z,0.87
2023-03-11T07:11:23.247Z,0.90
2023-03-11T07:13:51.356Z,0.97
2023-03-11T07:16:20.951Z,1.50
2023-03-11T07:18:50.250Z,1.10
2023-03-11T07:21:20.259Z,0.97
2023-03-11T07:23:49.380Z,1.10
2023-03-11T07:26:18.105Z,1.20
2023-03-11T07:28:45.496Z,1.23
2023-03-11T07:31:18.872Z,1.47
2023-03-11T07:33:46.304Z,1.23
2023-03-11T07:36:19.868Z,1.40
2023-03-11T07:38:47.404Z,1.20
2023-03-11T07:41:16.187Z,1.00
2023-03-11T07:43:44.180Z,1.10
2023-03-11T07:46:14.212Z,1.30
2023-03-11T07:48:41.516Z,1.47
2023-03-11T07:51:16.381Z,1.40
2023-03-11T07:53:44.166Z,1.50
2023-03-11T07:56:13.396Z,1.80
2023-03-11T07:58:41.500Z,1.63
2023-03-11T08:01:16.256Z,1.47
2023-03-11T08:03:45.824Z,1.57
2023-03-11T08:06:24.956Z,1.67
2023-03-11T08:08:54.494Z,1.40
2023-03-11T08:11:22.691Z,1.37
2023-03-11T08:13:50.866Z,1.53
2023-03-11T08:16:20.908Z,1.30
2023-03-11T08:18:49.397Z,1.37
2023-03-11T08:21:20.213Z,1.73
2023-03-11T08:23:47.336Z,1.37
2023-03-11T08:26:18.013Z,1.60
2023-03-11T08:28:45.662Z,1.20
2023-03-11T08:31:14.805Z,1.50
2023-03-11T08:33:43.325Z,1.20
2023-03-11T08:36:10.687Z,1.50
2023-03-11T08:38:38.639Z,0.97
2023-03-11T08:41:06.526Z,1.30
2023-03-11T08:43:33.940Z,1.27
2023-03-11T08:46:02.628Z,1.20
2023-03-11T08:48:30.172Z,1.30
2023-03-11T08:50:57.406Z,1.17
2023-03-11T08:53:25.447Z,1.23
2023-03-11T08:55:53.351Z,1.03
2023-03-11T08:58:21.307Z,1.20
2023-03-11T09:00:48.837Z,1.20
2023-03-11T09:03:16.230Z,1.10
2023-03-11T09:05:43.808Z,1.00
2023-03-11T09:08:11.421Z,1.20
2023-03-11T09:10:38.716Z,1.10
2023-03-11T09:13:05.850Z,1.27
2023-03-11T09:15:33.547Z,1.30
2023-03-11T09:18:01.009Z,0.90
2023-03-11T09:20:28.158Z,1.10
2023-03-11T09:22:55.239Z,0.80
2023-03-11T09:25:22.612Z,0.97
2023-03-11T09:27:49.968Z,0.80
2023-03-11T09:30:17.708Z,0.93
2023-03-11T09:32:44.891Z,0.83
2023-03-11T09:35:12.454Z,1.13
2023-03-11T09:37:39.661Z,1.00
2023-03-11T09:40:07.763Z,1.17
2023-03-11T09:43:03.292Z,0.83
2023-03-11T09:45:34.823Z,1.03
2023-03-11T09:48:25.046Z,1.10
2023-03-11T09:51:18.142Z,1.00
2023-03-11T09:53:46.674Z,1.00
2023-03-11T09:56:17.521Z,0.93
2023-03-11T09:58:56.633Z,1.07
2023-03-11T10:01:29.275Z,1.50
2023-03-11T10:04:02.444Z,1.10
2023-03-11T10:06:30.582Z,1.20
2023-03-11T10:09:10.736Z,1.33
2023-03-11T10:12:06.177Z,1.00
2023-03-11T10:14:43.130Z,0.97
2023-03-11T10:17:31.678Z,1.17
2023-03-11T10:20:13.405Z,0.90
2023-03-11T10:22:46.950Z,1.37
2023-03-11T10:25:19.116Z,1.40
2023-03-11T10:27:49.571Z,1.00
2023-03-11T10:30:31.472Z,1.10
2023-03-11T10:33:06.807Z,1.07
2023-03-11T10:35:42.705Z,1.23
2023-03-11T10:38:21.912Z,1.20
2023-03-11T10:40:54.016Z,1.07
2023-03-11T10:43:29.414Z,1.30
2023-03-11T10:45:57.057Z,1.07
2023-03-11T10:48:26.026Z,1.20
2023-03-11T10:51:22.803Z,0.83
2023-03-11T10:53:58.562Z,0.90
2023-03-11T10:56:27.463Z,1.10
2023-03-11T10:58:55.385Z,1.33
2023-03-11T11:01:23.574Z,1.13
2023-03-11T11:03:56.087Z,1.10
2023-03-11T11:06:30.130Z,1.33
2023-03-11T11:09:17.437Z,1.10
2023-03-11T11:12:00.728Z,1.43
2023-03-11T11:14:42.931Z,1.40
2023-03-11T11:17:26.719Z,1.10
2023-03-11T11:19:57.090Z,1.40
2023-03-11T11:22:25.703Z,1.17
2023-03-11T11:24:55.504Z,1.00
2023-03-11T11:27:25.334Z,1.20
2023-03-11T11:30:15.203Z,1.50
2023-03-11T11:32:43.299Z,2.00
2023-03-11T11:35:16.570Z,1.20
2023-03-11T11:37:59.648Z,1.23
2023-03-11T11:40:33.250Z,1.37
2023-03-11T11:43:15.065Z,1.20
2023-03-11T11:45:49.392Z,3.30
2023-03-11T11:49:07.454Z,1.20
2023-03-11T11:51:40.416Z,1.50
2023-03-11T11:54:24.116Z,1.53
2023-03-11T11:56:51.328Z,1.60
2023-03-11T11:59:21.916Z,2.20
2023-03-11T12:02:12.277Z,2.40
2023-03-11T12:05:06.450Z,3.03
2023-03-11T12:07:36.420Z,3.40
2023-03-11T12:10:35.649Z,3.70
2023-03-11T12:13:29.344Z,3.40
2023-03-11T12:16:06.013Z,3.07
2023-03-11T12:18:36.444Z,2.70
2023-03-11T12:21:20.025Z,2.70
2023-03-11T12:24:03.555Z,3.13
2023-03-11T12:26:35.515Z,2.30
2023-03-11T12:29:17.501Z,2.40
2023-03-11T12:31:46.156Z,2.17
2023-03-11T12:34:17.950Z,1.80
2023-03-11T12:36:47.181Z,1.70
2023-03-11T12:39:20.368Z,1.80
2023-03-11T12:41:47.640Z,1.80
2023-03-11T12:44:21.498Z,2.10
2023-03-11T12:46:57.535Z,1.63
2023-03-11T12:49:33.404Z,1.77
2023-03-11T12:52:08.902Z,1.87
2023-03-11T12:54:37.456Z,2.00
2023-03-11T12:57:36.009Z,1.97
2023-03-11T13:00:24.664Z,1.90
2023-03-11T13:03:24.856Z,1.73
2023-03-11T13:06:10.686Z,2.17
2023-03-11T13:08:54.893Z,1.87
2023-03-11T13:11:34.333Z,3.20
2023-03-11T13:14:23.218Z,1.70
2023-03-11T13:16:50.927Z,1.30
2023-03-11T13:19:47.984Z,1.63
2023-03-11T13:22:54.149Z,2.33
2023-03-11T13:25:39.781Z,1.13
2023-03-11T13:28:33.879Z,1.07
2023-03-11T13:31:37.608Z,1.20
2023-03-11T13:34:17.014Z,1.10
2023-03-11T13:36:55.813Z,1.30
2023-03-11T13:39:29.026Z,1.30
2023-03-11T13:41:56.698Z,1.00
2023-03-11T13:44:31.331Z,1.10
2023-03-11T13:47:11.304Z,0.97
2023-03-11T13:50:10.884Z,1.10
2023-03-11T13:52:55.459Z,0.83
2023-03-11T13:55:31.248Z,0.90
2023-03-11T13:57:58.853Z,1.20
2023-03-11T14:00:30.794Z,0.87
2023-03-11T14:03:11.746Z,1.13
2023-03-11T14:05:46.514Z,0.67
2023-03-11T14:08:32.105Z,0.80
2023-03-11T14:11:13.705Z,0.60
2023-03-11T14:13:45.992Z,1.23
2023-03-11T14:16:36.069Z,0.83
2023-03-11T14:19:19.177Z,1.60
2023-03-11T14:21:49.869Z,1.10
2023-03-11T14:24:20.787Z,1.30
2023-03-11T14:26:49.955Z,0.80
2023-03-11T14:29:20.031Z,0.97
2023-03-11T14:31:48.316Z,0.70
2023-03-11T14:34:18.125Z,1.23
2023-03-11T14:36:55.549Z,0.70
2023-03-11T14:39:34.465Z,0.83
2023-03-11T14:42:09.049Z,0.87
2023-03-11T14:44:40.717Z,0.80
2023-03-11T14:47:11.125Z,0.83
2023-03-11T14:49:39.769Z,0.80
2023-03-11T14:52:15.585Z,0.70
2023-03-11T14:54:46.073Z,1.37
2023-03-11T14:57:25.217Z,0.73
2023-03-11T14:59:53.632Z,1.63
2023-03-11T15:02:35.153Z,0.83
2023-03-11T15:05:11.915Z,0.80
2023-03-11T15:07:40.447Z,0.87
2023-03-11T15:10:10.467Z,0.90
2023-03-11T15:12:44.889Z,0.77
2023-03-11T15:15:38.603Z,0.70
2023-03-11T15:18:23.949Z,0.60
2023-03-11T15:21:08.258Z,0.60
2023-03-11T15:23:38.053Z,0.87
2023-03-11T15:26:07.183Z,0.80
2023-03-11T15:28:37.377Z,0.80
2023-03-11T15:31:22.904Z,1.07
2023-03-11T15:33:53.412Z,1.57
2023-03-11T15:36:40.112Z,0.70
2023-03-11T15:39:18.234Z,0.63
2023-03-11T15:41:57.641Z,0.90
2023-03-11T15:44:36.484Z,1.07
2023-03-11T15:47:05.081Z,0.73
2023-03-11T15:49:36.528Z,0.80
2023-03-11T15:52:15.809Z,0.97
2023-03-11T15:54:54.473Z,0.70
2023-03-11T15:57:30.205Z,0.83
2023-03-11T15:59:59.985Z,0.87
2023-03-11T16:02:30.726Z,0.90
2023-03-11T16:04:59.058Z,0.97
2023-03-11T16:07:38.712Z,0.90
2023-03-11T16:10:12.047Z,0.70
2023-03-11T16:12:43.059Z,1.27
2023-03-11T16:15:25.933Z,1.00
2023-03-11T16:17:55.201Z,0.87
2023-03-11T16:20:25.914Z,1.00
2023-03-11T16:22:56.093Z,0.60
2023-03-11T16:25:38.658Z,1.07
2023-03-11T16:28:08.311Z,0.77
2023-03-11T16:30:36.581Z,0.90
2023-03-11T16:33:05.374Z,0.70
2023-03-11T16:35:33.061Z,0.90
2023-03-11T16:38:00.347Z,0.53
2023-03-11T16:40:30.428Z,1.63
2023-03-11T16:43:05.444Z,0.70
2023-03-11T16:45:33.145Z,0.93
2023-03-11T16:48:00.794Z,1.00
2023-03-11T16:50:28.788Z,0.83
2023-03-11T16:52:57.137Z,2.20
2023-03-11T16:55:25.907Z,1.90
2023-03-11T16:57:55.123Z,0.97
2023-03-11T17:00:22.426Z,0.70
2023-03-11T17:02:49.578Z,1.10
2023-03-11T17:05:17.295Z,1.00
2023-03-11T17:07:44.821Z,1.07
2023-03-11T17:10:12.535Z,1.37
2023-03-11T17:12:41.913Z,1.00
2023-03-11T17:15:10.754Z,1.23
2023-03-11T17:17:38.851Z,0.93
2023-03-11T17:20:10.903Z,1.43
2023-03-11T17:22:40.098Z,1.40
2023-03-11T17:25:08.560Z,1.30
2023-03-11T17:27:36.353Z,1.23
2023-03-11T17:30:05.720Z,1.03
2023-03-11T17:32:33.076Z,1.53
2023-03-11T17:35:00.340Z,1.33
2023-03-11T17:37:28.146Z,1.00
2023-03-11T17:39:55.730Z,1.00
2023-03-11T17:42:23.742Z,1.10
2023-03-11T17:44:55.468Z,2.17
2023-03-11T17:47:26.195Z,1.00
2023-03-11T17:49:54.738Z,1.23
2023-03-11T17:52:22.120Z,1.40
2023-03-11T17:54:49.540Z,1.43
2023-03-11T17:57:17.245Z,1.30
2023-03-11T17:59:44.931Z,2.70
2023-03-11T18:02:14.404Z,1.37
2023-03-11T18:04:43.481Z,1.57
2023-03-11T18:07:10.632Z,1.57
2023-03-11T18:09:37.987Z,1.70
2023-03-11T18:12:07.014Z,1.83
2023-03-11T18:14:36.278Z,1.73
2023-03-11T18:17:03.452Z,1.47
2023-03-11T18:19:30.617Z,1.50
2023-03-11T18:21:57.699Z,1.63
2023-03-11T18:24:25.247Z,1.80
2023-03-11T18:26:52.825Z,1.73
2023-03-11T18:29:20.005Z,1.40
2023-03-11T18:31:48.656Z,1.70
2023-03-11T18:34:16.233Z,1.70
2023-03-11T18:36:43.773Z,1.40
2023-03-11T18:39:12.753Z,1.50
2023-03-11T18:41:40.287Z,1.63
2023-03-11T18:44:07.677Z,2.10
2023-03-11T18:46:34.971Z,0.93
2023-03-11T18:49:04.080Z,1.30
2023-03-11T18:51:32.609Z,2.70
2023-03-11T18:54:01.154Z,1.60
2023-03-11T18:56:31.329Z,1.70
2023-03-11T18:59:02.505Z,1.90
2023-03-11T19:01:30.205Z,1.80
2023-03-11T19:03:59.513Z,1.33
2023-03-11T19:06:28.418Z,1.40
2023-03-11T19:08:58.102Z,1.50
2023-03-11T19:11:26.906Z,3.53
2023-03-11T19:13:55.410Z,1.20
2023-03-11T19:16:25.819Z,1.20
2023-03-11T19:18:55.772Z,1.57
2023-03-11T19:21:24.667Z,1.33
2023-03-11T19:23:55.439Z,1.10
2023-03-11T19:26:41.436Z,1.20
2023-03-11T19:29:11.657Z,1.23
2023-03-11T19:31:39.476Z,1.43
2023-03-11T19:34:07.757Z,1.10
2023-03-11T19:36:35.706Z,0.80
2023-03-11T19:39:04.119Z,1.27
2023-03-11T19:41:31.583Z,1.00
2023-03-11T19:43:59.084Z,1.40
2023-03-11T19:46:27.209Z,1.20
2023-03-11T19:48:57.188Z,1.70
2023-03-11T19:51:28.478Z,1.17
2023-03-11T19:54:01.756Z,1.40
2023-03-11T19:56:29.677Z,1.33
2023-03-11T19:58:57.547Z,1.43
2023-03-11T20:01:28.516Z,1.17
2023-03-11T20:03:56.499Z,1.20
2023-03-11T20:06:24.020Z,2.10
2023-03-11T20:11:18.638Z,1.30
2023-03-11T20:13:49.284Z,1.40
2023-03-11T20:16:19.325Z,1.73
2023-03-11T20:18:50.870Z,1.33
2023-03-11T20:21:19.096Z,1.30
2023-03-11T20:23:46.726Z,1.20
2023-03-11T20:26:16.527Z,1.20
2023-03-11T20:28:45.085Z,0.90
2023-03-11T20:31:20.100Z,1.20
2023-03-11T20:33:49.407Z,1.63
2023-03-11T20:36:21.768Z,1.07
2023-03-11T20:38:51.124Z,1.07
2023-03-11T20:41:24.771Z,1.30
2023-03-11T20:43:53.820Z,1.20
2023-03-11T20:46:22.310Z,1.67
2023-03-11T20:48:49.856Z,1.10
2023-03-11T20:51:21.887Z,1.30
2023-03-11T20:53:50.175Z,1.00
2023-03-11T20:56:24.003Z,1.10
2023-03-11T20:58:54.018Z,1.50
2023-03-11T21:01:30.800Z,1.57
2023-03-11T21:04:02.006Z,1.40
2023-03-11T21:06:35.476Z,1.00
2023-03-11T21:09:06.099Z,1.50
2023-03-11T21:11:34.871Z,0.90
2023-03-11T21:14:03.176Z,1.13
2023-03-11T21:16:34.156Z,1.00
2023-03-11T21:19:06.084Z,1.17
2023-03-11T21:21:34.408Z,1.20
2023-03-11T21:24:02.028Z,1.60
2023-03-11T21:26:29.650Z,1.37
2023-03-11T21:28:57.100Z,1.53
2023-03-11T21:31:29.033Z,1.67
2023-03-11T21:33:59.927Z,1.17
2023-03-11T21:36:28.995Z,0.97
2023-03-11T21:38:57.320Z,1.20
2023-03-11T21:41:27.726Z,1.57
2023-03-11T21:43:57.645Z,1.00
2023-03-11T21:46:28.077Z,1.20
2023-03-11T21:48:56.306Z,0.97
2023-03-11T21:51:24.473Z,1.40
2023-03-11T21:53:52.035Z,1.50
2023-03-11T21:56:19.633Z,1.40
2023-03-11T21:58:47.016Z,1.40
2023-03-11T22:01:14.585Z,1.10
2023-03-11T22:03:42.577Z,1.07
2023-03-11T22:06:12.684Z,1.33
2023-03-11T22:08:41.411Z,1.50
2023-03-11T22:11:13.930Z,1.17
2023-03-11T22:13:41.545Z,1.30
2023-03-11T22:16:09.087Z,1.40
2023-03-11T22:18:36.867Z,1.07
2023-03-11T22:21:04.529Z,1.50
2023-03-11T22:23:32.212Z,1.13
2023-03-11T22:25:59.494Z,1.50
2023-03-11T22:28:27.578Z,1.10
2023-03-11T22:30:55.247Z,1.93
2023-03-11T22:33:23.105Z,1.97
2023-03-11T22:35:53.016Z,2.03
2023-03-11T22:38:21.140Z,1.53
2023-03-11T22:40:48.880Z,1.50
2023-03-11T22:43:16.640Z,2.23
2023-03-11T22:45:45.746Z,2.40
2023-03-11T22:48:13.290Z,2.60
2023-03-11T22:50:42.722Z,1.70
2023-03-11T22:53:10.751Z,1.37
2023-03-11T22:55:42.173Z,1.27
2023-03-11T22:58:09.930Z,1.60
2023-03-11T23:00:37.101Z,0.90
2023-03-11T23:03:05.172Z,0.83
2023-03-11T23:05:32.909Z,1.40
2023-03-11T23:08:00.022Z,1.57
2023-03-11T23:10:27.181Z,1.43
2023-03-11T23:12:59.347Z,1.93
2023-03-11T23:15:31.076Z,1.83
2023-03-11T23:17:59.378Z,1.83
2023-03-11T23:20:27.331Z,3.23
2023-03-11T23:22:57.473Z,1.90
2023-03-11T23:25:27.387Z,1.83
2023-03-11T23:27:55.152Z,1.70
2023-03-11T23:30:25.527Z,1.80
2023-03-11T23:32:56.949Z,1.63
2023-03-11T23:35:28.542Z,1.67
2023-03-11T23:37:56.812Z,1.57
2023-03-11T23:40:24.233Z,1.60
2023-03-11T23:42:55.386Z,1.60
2023-03-11T23:45:26.108Z,1.53
2023-03-11T23:47:54.153Z,1.83
2023-03-11T23:50:24.449Z,1.47
2023-03-11T23:52:52.440Z,1.40
2023-03-11T23:55:19.850Z,1.80
2023-03-11T23:57:48.329Z,1.30
